Time;durP1;ratioP1;P1;durP2;ratioP2;P2;SDS_P1;SDS_P2;PMS_P1;PMS_P2;Temp;Humidity;BMP_temperature;BMP_pressure;BME280_temperature;BME280_humidity;BME280_pressure;Samples;Min_cycle;Max_cycle;Signal;HPM_P1;HPM_P2
2021/12/02 00:01:56;;;;;;;7.07;0.70;;;3.50;99.90;;;;;;4786528;29;20487;-77
2021/12/02 00:04:23;;;;;;;9.25;1.20;;;3.50;99.90;;;;;;4801476;29;20391;-77
2021/12/02 00:06:50;;;;;;;8.10;1.05;;;3.50;99.90;;;;;;4784383;29;20051;-78
2021/12/02 00:09:16;;;;;;;8.50;0.90;;;3.50;99.90;;;;;;4786329;29;20484;-78
2021/12/02 00:11:43;;;;;;;8.30;1.05;;;3.50;99.90;;;;;;4802896;29;20043;-79
2021/12/02 00:14:11;;;;;;;11.27;0.90;;;3.60;99.90;;;;;;4772956;29;20051;-79
2021/12/02 00:16:52;;;;;;;8.48;1.35;;;3.70;99.90;;;;;;4776121;29;20101;-79
2021/12/02 00:22:06;;;;;;;8.85;1.00;;;3.80;99.90;;;;;;4802611;29;20058;-81
2021/12/02 00:24:39;;;;;;;7.20;1.50;;;3.90;99.90;;;;;;4799308;29;20034;-80
2021/12/02 00:27:10;;;;;;;11.65;0.88;;;4.00;99.90;;;;;;4805368;29;20054;-80
2021/12/02 00:29:41;;;;;;;8.30;0.82;;;4.00;99.90;;;;;;4790645;29;20051;-78
2021/12/02 00:32:10;;;;;;;7.97;1.30;;;4.00;99.90;;;;;;4801146;29;20035;-79
2021/12/02 00:34:43;;;;;;;6.68;0.80;;;4.00;99.90;;;;;;4787652;29;20399;-79
2021/12/02 00:37:10;;;;;;;9.52;0.90;;;4.00;99.90;;;;;;4774807;29;20058;-80
2021/12/02 00:39:37;;;;;;;10.25;1.05;;;3.90;99.90;;;;;;4788477;29;20371;-78
2021/12/02 00:42:04;;;;;;;7.90;1.10;;;3.90;99.90;;;;;;4784016;29;20031;-78
2021/12/02 00:44:34;;;;;;;7.95;0.88;;;3.90;99.90;;;;;;4787492;29;20062;-78
2021/12/02 00:47:02;;;;;;;8.03;0.60;;;4.00;99.90;;;;;;4785875;29;20047;-79
2021/12/02 00:49:30;;;;;;;5.50;1.00;;;4.00;99.90;;;;;;4803231;29;20073;-78
2021/12/02 00:51:59;;;;;;;7.70;1.05;;;4.00;99.90;;;;;;4777165;29;20403;-78
2021/12/02 00:54:28;;;;;;;6.68;1.15;;;4.10;99.90;;;;;;4793104;29;20130;-80
2021/12/02 00:56:55;;;;;;;9.83;1.10;;;4.10;99.90;;;;;;4787346;29;20380;-80
2021/12/02 00:59:23;;;;;;;5.32;1.05;;;4.10;99.90;;;;;;4773324;29;20206;-79
2021/12/02 01:01:53;;;;;;;9.95;1.60;;;4.00;99.90;;;;;;4785677;29;20034;-80
2021/12/02 01:04:23;;;;;;;6.68;1.02;;;4.00;99.90;;;;;;4790576;29;20039;-79
2021/12/02 01:06:51;;;;;;;8.77;1.30;;;3.90;99.90;;;;;;4787251;29;20043;-80
2021/12/02 01:09:19;;;;;;;2.20;0.73;;;3.90;99.90;;;;;;4783604;29;20047;-80
2021/12/02 01:11:46;;;;;;;1.95;0.55;;;3.90;99.90;;;;;;4806479;29;20042;-79
2021/12/02 01:14:13;;;;;;;1.90;0.68;;;4.00;99.90;;;;;;4801408;29;20039;-77
2021/12/02 01:16:40;;;;;;;3.83;0.70;;;4.00;99.90;;;;;;4810205;29;20034;-78
2021/12/02 01:19:07;;;;;;;3.20;0.68;;;3.90;99.90;;;;;;4794376;29;20050;-78
2021/12/02 01:21:37;;;;;;;6.65;0.75;;;3.90;99.90;;;;;;4807019;29;20054;-78
2021/12/02 01:24:06;;;;;;;6.85;1.23;;;3.80;99.90;;;;;;4800828;29;20027;-78
2021/12/02 01:26:34;;;;;;;4.00;0.80;;;3.80;99.90;;;;;;4802615;29;20638;-78
2021/12/02 01:29:03;;;;;;;3.53;0.55;;;3.80;99.90;;;;;;4778921;29;20047;-78
2021/12/02 01:31:32;;;;;;;3.20;0.60;;;3.70;99.90;;;;;;4770895;29;20038;-78
2021/12/02 01:34:01;;;;;;;5.45;0.93;;;3.70;99.90;;;;;;4802907;29;20038;-78
2021/12/02 01:36:40;;;;;;;5.55;0.70;;;3.60;99.90;;;;;;4788523;29;20047;-77
2021/12/02 01:39:09;;;;;;;2.33;0.50;;;3.60;99.90;;;;;;4783055;29;20031;-78
2021/12/02 01:41:58;;;;;;;4.65;0.80;;;3.60;99.90;;;;;;4806597;29;20042;-77
2021/12/02 01:44:27;;;;;;;6.22;0.80;;;3.60;99.90;;;;;;4789901;29;20511;-78
2021/12/02 01:47:00;;;;;;;3.80;0.73;;;3.60;99.90;;;;;;4790296;29;20038;-78
2021/12/02 01:49:32;;;;;;;3.83;1.10;;;3.60;99.90;;;;;;4809225;29;20042;-78
2021/12/02 01:52:01;;;;;;;3.47;0.73;;;3.70;99.90;;;;;;4795934;29;20066;-78
2021/12/02 01:54:27;;;;;;;6.75;0.88;;;3.60;99.90;;;;;;4790208;29;20050;-78
2021/12/02 01:57:04;;;;;;;3.57;0.70;;;3.70;99.90;;;;;;4773284;29;20382;-78
2021/12/02 01:59:35;;;;;;;2.83;0.70;;;3.70;99.90;;;;;;4804934;29;20042;-78
2021/12/02 02:02:10;;;;;;;4.43;0.85;;;3.70;99.90;;;;;;4790278;29;20775;-78
2021/12/02 02:04:37;;;;;;;5.10;0.70;;;3.80;99.90;;;;;;4789929;29;20443;-78
2021/12/02 02:07:12;;;;;;;2.88;0.70;;;3.80;99.90;;;;;;4789977;29;20475;-78
2021/12/02 02:09:39;;;;;;;6.50;1.98;;;3.80;99.90;;;;;;4786915;29;20492;-78
2021/12/02 02:12:08;;;;;;;5.25;0.70;;;3.80;99.90;;;;;;4770351;29;20050;-77
2021/12/02 02:14:36;;;;;;;4.25;0.77;;;3.80;99.90;;;;;;4789764;29;20042;-78
2021/12/02 02:17:26;;;;;;;3.55;0.80;;;3.80;99.90;;;;;;4773704;29;20054;-77
2021/12/02 02:19:54;;;;;;;3.88;0.57;;;3.80;99.90;;;;;;4800991;29;20064;-78
2021/12/02 02:22:23;;;;;;;4.50;0.70;;;3.70;99.90;;;;;;4802351;29;20383;-77
2021/12/02 02:24:51;;;;;;;3.75;0.65;;;3.60;99.90;;;;;;4789673;29;20055;-78
2021/12/02 02:27:19;;;;;;;3.95;0.57;;;3.50;99.90;;;;;;4808725;29;20050;-78
2021/12/02 02:29:46;;;;;;;4.88;0.55;;;3.40;99.90;;;;;;4774888;29;20051;-77
2021/12/02 02:32:13;;;;;;;3.20;0.82;;;3.30;99.90;;;;;;4769019;29;20425;-77
2021/12/02 02:34:39;;;;;;;3.20;0.60;;;3.30;99.90;;;;;;4788534;29;20407;-78
2021/12/02 02:37:07;;;;;;;6.75;0.77;;;3.20;99.90;;;;;;4802744;29;20053;-78
2021/12/02 02:39:36;;;;;;;2.00;0.50;;;3.10;99.90;;;;;;4794903;29;20061;-78
2021/12/02 02:42:05;;;;;;;3.50;0.70;;;3.10;99.90;;;;;;4768784;30;20038;-77
2021/12/02 02:44:33;;;;;;;5.60;0.80;;;3.10;99.90;;;;;;4791658;29;20415;-77
2021/12/02 02:47:00;;;;;;;7.60;0.73;;;3.10;99.90;;;;;;4805597;29;20039;-78
2021/12/02 02:49:27;;;;;;;3.67;0.90;;;3.10;99.90;;;;;;4786699;29;20038;-78
2021/12/02 02:51:53;;;;;;;7.43;0.90;;;3.10;99.90;;;;;;4793346;29;20035;-77
2021/12/02 02:54:22;;;;;;;7.40;1.08;;;3.20;99.90;;;;;;4804984;29;20400;-77
2021/12/02 02:56:57;;;;;;;4.20;0.80;;;3.20;99.90;;;;;;4802398;29;20037;-77
2021/12/02 03:07:11;;;;;;;3.55;0.60;;;3.20;99.90;;;;;;4771159;29;20353;-78
2021/12/02 03:09:52;;;;;;;4.07;0.80;;;3.20;99.90;;;;;;4797352;29;20047;-77
2021/12/02 03:12:27;;;;;;;2.10;0.60;;;3.30;99.90;;;;;;4802206;29;20046;-78
2021/12/02 03:17:30;;;;;;;3.13;0.60;;;3.30;99.90;;;;;;4775489;29;20047;-78
2021/12/02 03:19:58;;;;;;;6.23;0.70;;;3.30;99.90;;;;;;4789940;29;20042;-78
2021/12/02 03:22:25;;;;;;;3.50;0.60;;;3.30;99.90;;;;;;4788469;29;20043;-78
2021/12/02 03:24:51;;;;;;;6.73;0.60;;;3.30;99.90;;;;;;4804169;29;20066;-78
2021/12/02 03:27:18;;;;;;;5.67;0.87;;;3.40;99.90;;;;;;4792520;29;20428;-80
2021/12/02 03:29:45;;;;;;;4.80;0.80;;;3.40;99.90;;;;;;4789654;29;20047;-80
2021/12/02 03:32:11;;;;;;;2.77;0.50;;;3.40;99.90;;;;;;4785888;29;20384;-80
2021/12/02 03:34:39;;;;;;;3.43;0.50;;;3.40;99.90;;;;;;4786138;29;20039;-80
2021/12/02 03:37:06;;;;;;;2.17;0.50;;;3.30;99.90;;;;;;4792328;29;20056;-80
2021/12/02 03:39:33;;;;;;;3.43;0.60;;;3.30;99.90;;;;;;4802280;29;20422;-82
2021/12/02 03:42:00;;;;;;;4.18;0.60;;;3.20;99.90;;;;;;4773942;29;20043;-81
2021/12/02 03:44:27;;;;;;;1.90;0.40;;;3.20;99.90;;;;;;4768623;29;20059;-80
2021/12/02 03:46:54;;;;;;;1.70;0.50;;;3.20;99.90;;;;;;4784717;29;20545;-81
2021/12/02 03:49:21;;;;;;;3.45;0.40;;;3.30;99.90;;;;;;4801877;29;20483;-81
2021/12/02 03:51:49;;;;;;;1.97;0.53;;;3.30;99.90;;;;;;4781465;29;20360;-80
2021/12/02 03:54:16;;;;;;;2.73;0.40;;;3.30;99.90;;;;;;4781191;29;20043;-78
2021/12/02 03:56:42;;;;;;;4.32;0.30;;;3.30;99.90;;;;;;4798626;29;20039;-79
2021/12/02 03:59:09;;;;;;;2.20;0.30;;;3.30;99.90;;;;;;4773566;29;20049;-79
2021/12/02 04:01:35;;;;;;;2.67;0.30;;;3.30;99.90;;;;;;4804294;29;20048;-82
2021/12/02 04:04:01;;;;;;;3.53;0.40;;;3.30;99.90;;;;;;4795577;29;20039;-79
2021/12/02 04:06:28;;;;;;;2.77;0.33;;;3.30;99.90;;;;;;4780745;29;20054;-79
2021/12/02 04:09:10;;;;;;;5.23;2.80;;;3.20;99.90;;;;;;4790675;29;20031;-79
2021/12/02 04:11:42;;;;;;;2.47;0.70;;;3.20;99.90;;;;;;4782709;29;20035;-80
2021/12/02 04:16:37;;;;;;;4.03;1.00;;;3.10;99.90;;;;;;4793795;29;20043;-80
2021/12/02 04:19:05;;;;;;;4.60;0.77;;;3.00;99.90;;;;;;4804603;29;20483;-80
2021/12/02 04:21:33;;;;;;;2.33;0.40;;;3.00;99.90;;;;;;4788775;29;20372;-80
2021/12/02 04:24:00;;;;;;;2.50;0.60;;;3.00;99.90;;;;;;4787493;29;20045;-80
2021/12/02 04:26:26;;;;;;;1.13;0.27;;;3.00;99.90;;;;;;4785707;29;20030;-80
2021/12/02 04:28:53;;;;;;;2.37;0.30;;;3.00;99.90;;;;;;4771330;29;20042;-80
2021/12/02 04:31:19;;;;;;;7.37;0.40;;;3.00;99.90;;;;;;4801411;29;20392;-80
2021/12/02 04:33:46;;;;;;;2.73;0.20;;;3.00;99.90;;;;;;4787888;29;20043;-80
2021/12/02 04:36:12;;;;;;;2.70;0.30;;;3.00;99.90;;;;;;4787845;29;20039;-80
2021/12/02 04:38:39;;;;;;;1.37;0.30;;;2.90;99.90;;;;;;4771665;29;20044;-80
2021/12/02 04:41:05;;;;;;;2.63;0.20;;;2.90;99.90;;;;;;4786951;29;20380;-80
2021/12/02 04:43:32;;;;;;;0.97;0.23;;;2.90;99.90;;;;;;4786196;29;20075;-80
2021/12/02 04:45:58;;;;;;;3.13;0.20;;;2.90;99.90;;;;;;4790872;29;20042;-80
2021/12/02 04:48:25;;;;;;;3.50;0.30;;;2.90;99.90;;;;;;4803366;29;20042;-80
2021/12/02 04:50:53;;;;;;;1.13;0.20;;;2.90;99.90;;;;;;4773059;29;20145;-80
2021/12/02 04:53:19;;;;;;;2.03;0.30;;;2.90;99.90;;;;;;4800793;29;20836;-80
2021/12/02 04:55:46;;;;;;;1.40;0.25;;;3.00;99.90;;;;;;4801298;29;20050;-80
2021/12/02 04:58:12;;;;;;;3.97;0.47;;;3.00;99.90;;;;;;4796940;29;20045;-80
2021/12/02 05:00:51;;;;;;;1.50;0.30;;;3.00;99.90;;;;;;4790064;29;20030;-80
2021/12/02 05:03:17;;;;;;;0.73;0.20;;;3.00;99.90;;;;;;4782644;29;20059;-80
2021/12/02 05:05:44;;;;;;;3.77;0.30;;;2.90;99.90;;;;;;4774499;29;20050;-80
2021/12/02 05:08:11;;;;;;;3.03;0.30;;;2.90;99.90;;;;;;4785169;29;20039;-80
2021/12/02 05:10:37;;;;;;;4.77;0.40;;;2.90;99.90;;;;;;4788278;29;20070;-77
2021/12/02 05:13:06;;;;;;;2.00;0.33;;;2.90;99.90;;;;;;4802049;29;20051;-77
2021/12/02 05:15:32;;;;;;;0.40;0.20;;;2.80;99.90;;;;;;4769908;29;20056;-80
2021/12/02 05:17:58;;;;;;;3.07;0.20;;;2.80;99.90;;;;;;4803416;29;20046;-80
2021/12/02 05:20:25;;;;;;;3.30;0.40;;;2.80;99.90;;;;;;4768501;29;20048;-80
2021/12/02 05:22:52;;;;;;;2.30;0.30;;;2.80;99.90;;;;;;4782851;29;20042;-80
2021/12/02 05:25:18;;;;;;;4.30;0.43;;;2.90;99.90;;;;;;4778653;29;20051;-80
2021/12/02 05:27:45;;;;;;;1.67;0.40;;;3.00;99.90;;;;;;4800401;29;20051;-80
2021/12/02 05:30:11;;;;;;;6.47;0.60;;;3.00;99.90;;;;;;4800930;29;20492;-80
2021/12/02 05:32:38;;;;;;;7.07;0.67;;;3.10;99.90;;;;;;4785427;29;20486;-80
2021/12/02 05:35:06;;;;;;;6.70;0.90;;;3.10;99.90;;;;;;4799949;29;20058;-80
2021/12/02 05:37:32;;;;;;;3.27;0.50;;;3.10;99.90;;;;;;4769556;29;20043;-80
2021/12/02 05:39:59;;;;;;;1.47;0.30;;;3.10;99.90;;;;;;4803817;29;20050;-80
2021/12/02 05:42:25;;;;;;;1.77;0.30;;;3.10;99.90;;;;;;4786423;29;20050;-77
2021/12/02 05:44:53;;;;;;;3.13;0.37;;;3.10;99.90;;;;;;4768582;29;20062;-77
2021/12/02 05:47:20;;;;;;;1.17;0.30;;;3.00;99.90;;;;;;4804959;29;20038;-80
2021/12/02 05:49:47;;;;;;;2.45;0.20;;;3.00;99.90;;;;;;4801829;29;20043;-80
2021/12/02 05:52:14;;;;;;;1.40;0.30;;;3.00;99.90;;;;;;4790297;29;20051;-80
2021/12/02 05:54:40;;;;;;;2.23;0.20;;;3.00;99.90;;;;;;4769669;29;20043;-80
2021/12/02 05:57:07;;;;;;;0.87;0.30;;;2.90;99.90;;;;;;4773014;29;20356;-79
2021/12/02 05:59:33;;;;;;;3.43;0.50;;;2.80;99.90;;;;;;4776808;29;20039;-76
2021/12/02 06:02:00;;;;;;;3.87;0.30;;;2.80;99.90;;;;;;4796513;29;20043;-76
2021/12/02 06:04:26;;;;;;;3.80;0.57;;;2.70;99.90;;;;;;4771037;29;20051;-76
2021/12/02 06:06:53;;;;;;;1.50;0.47;;;2.70;99.90;;;;;;4787058;29;20043;-84
2021/12/02 06:09:19;;;;;;;3.10;0.30;;;2.70;99.90;;;;;;4792596;29;20406;-76
2021/12/02 06:11:46;;;;;;;4.10;0.50;;;2.70;99.90;;;;;;4804991;29;20045;-77
2021/12/02 06:14:14;;;;;;;2.63;0.40;;;2.70;99.90;;;;;;4761098;29;20502;-79
2021/12/02 06:16:41;;;;;;;1.07;0.50;;;2.70;99.90;;;;;;4788118;29;20034;-76
2021/12/02 06:19:08;;;;;;;2.13;0.40;;;2.70;99.90;;;;;;4797828;29;20039;-76
2021/12/02 06:21:35;;;;;;;4.47;0.57;;;2.70;99.90;;;;;;4789901;29;20046;-76
2021/12/02 06:24:04;;;;;;;3.23;0.50;;;2.60;99.90;;;;;;4791325;29;20384;-76
2021/12/02 06:26:32;;;;;;;1.87;0.40;;;2.60;99.90;;;;;;4804186;29;20510;-84
2021/12/02 06:28:59;;;;;;;1.37;0.43;;;2.60;99.90;;;;;;4811102;29;20050;-76
2021/12/02 06:31:26;;;;;;;2.20;0.30;;;2.50;99.90;;;;;;4809542;29;20046;-84
2021/12/02 06:33:53;;;;;;;1.43;0.40;;;2.50;99.90;;;;;;4762563;29;20043;-76
2021/12/02 06:36:20;;;;;;;3.13;0.50;;;2.50;99.90;;;;;;4809825;29;20047;-80
2021/12/02 06:38:46;;;;;;;1.60;0.53;;;2.60;99.90;;;;;;4807607;29;20046;-76
2021/12/02 06:41:13;;;;;;;2.67;0.80;;;2.70;99.90;;;;;;4776139;29;20051;-77
2021/12/02 06:43:39;;;;;;;3.53;0.82;;;2.70;99.90;;;;;;4776800;29;20039;-81
2021/12/02 06:46:06;;;;;;;3.20;1.03;;;2.80;99.90;;;;;;4808713;29;20503;-75
2021/12/02 06:48:32;;;;;;;2.47;0.80;;;2.90;99.90;;;;;;4787705;29;20050;-76
2021/12/02 06:50:58;;;;;;;2.73;0.77;;;2.90;99.90;;;;;;4804690;29;20697;-76
2021/12/02 06:53:25;;;;;;;2.90;0.77;;;2.90;99.90;;;;;;4789631;29;20045;-77
2021/12/02 06:55:51;;;;;;;3.40;1.10;;;2.90;99.90;;;;;;4782482;29;21855;-76
2021/12/02 06:58:18;;;;;;;3.13;0.70;;;3.00;99.90;;;;;;4773226;29;20050;-76
2021/12/02 07:00:44;;;;;;;3.17;0.77;;;3.00;99.90;;;;;;4776314;29;20510;-76
2021/12/02 07:03:10;;;;;;;1.97;0.70;;;3.00;99.90;;;;;;4805836;29;20042;-80
2021/12/02 07:05:37;;;;;;;3.23;1.10;;;3.00;99.90;;;;;;4799497;29;20042;-80
2021/12/02 07:08:04;;;;;;;3.10;1.10;;;2.90;99.90;;;;;;4808429;29;20526;-81
2021/12/02 07:10:32;;;;;;;1.97;1.00;;;2.90;99.90;;;;;;4805864;29;20367;-80
2021/12/02 07:13:00;;;;;;;3.97;1.10;;;2.80;99.90;;;;;;4806357;29;20031;-81
2021/12/02 07:15:32;;;;;;;2.90;1.03;;;2.70;99.90;;;;;;4811200;29;20578;-79
2021/12/02 07:18:00;;;;;;;5.50;1.98;;;2.60;99.90;;;;;;4789799;29;20034;-80
2021/12/02 07:20:34;;;;;;;3.70;1.60;;;2.50;99.90;;;;;;4795416;29;20035;-80
2021/12/02 07:23:00;;;;;;;3.57;1.40;;;2.50;99.90;;;;;;4802448;29;20027;-80
2021/12/02 07:25:29;;;;;;;4.20;1.50;;;2.40;99.90;;;;;;4784711;29;20038;-81
2021/12/02 07:27:55;;;;;;;3.23;1.83;;;2.30;99.90;;;;;;4807520;29;20038;-81
2021/12/02 07:30:22;;;;;;;2.97;1.60;;;2.30;99.90;;;;;;4794502;29;20035;-81
2021/12/02 07:32:54;;;;;;;3.63;1.87;;;2.30;99.90;;;;;;4779982;29;20506;-81
2021/12/02 07:35:21;;;;;;;5.80;2.15;;;2.40;99.90;;;;;;4796117;29;20590;-81
2021/12/02 07:37:56;;;;;;;3.10;2.13;;;2.30;99.90;;;;;;4800079;29;20041;-81
2021/12/02 07:40:23;;;;;;;4.50;2.27;;;2.30;99.90;;;;;;4812794;29;20052;-81
2021/12/02 07:42:52;;;;;;;6.93;2.37;;;2.30;99.90;;;;;;4799311;29;20487;-80
2021/12/02 07:45:20;;;;;;;3.57;2.07;;;2.30;99.90;;;;;;4794726;29;20062;-81
2021/12/02 07:47:48;;;;;;;3.77;2.40;;;2.30;99.90;;;;;;4794148;29;20045;-81
2021/12/02 07:50:16;;;;;;;4.13;2.23;;;2.30;99.90;;;;;;4791751;29;20399;-80
2021/12/02 07:52:52;;;;;;;5.57;2.20;;;2.40;99.90;;;;;;4795161;29;20046;-80
2021/12/02 07:55:19;;;;;;;9.23;3.73;;;2.50;99.90;;;;;;4779718;29;20142;-81
2021/12/02 07:57:47;;;;;;;6.17;2.83;;;2.60;99.90;;;;;;4764930;29;20408;-81
2021/12/02 08:00:17;;;;;;;6.00;2.37;;;2.60;99.90;;;;;;4811851;29;20038;-81
2021/12/02 08:02:45;;;;;;;6.67;1.90;;;2.70;99.90;;;;;;4784061;29;20416;-80
2021/12/02 08:05:13;;;;;;;6.77;1.97;;;2.70;99.90;;;;;;4794433;29;20065;-80
2021/12/02 08:07:41;;;;;;;5.37;1.90;;;2.80;99.90;;;;;;4773436;29;20073;-81
2021/12/02 08:10:10;;;;;;;7.90;2.40;;;2.80;99.90;;;;;;4797292;29;20042;-81
2021/12/02 08:12:40;;;;;;;6.10;2.10;;;2.80;99.90;;;;;;4799201;29;20062;-81
2021/12/02 08:15:09;;;;;;;5.70;1.50;;;2.90;99.90;;;;;;4798908;29;20042;-81
2021/12/02 08:17:36;;;;;;;9.13;1.60;;;2.90;99.90;;;;;;4785681;29;20057;-80
2021/12/02 08:20:03;;;;;;;2.97;1.47;;;3.00;99.90;;;;;;4808819;29;20039;-80
2021/12/02 08:22:31;;;;;;;4.33;1.20;;;3.00;99.90;;;;;;4812143;29;20058;-80
2021/12/02 08:24:58;;;;;;;2.80;1.10;;;3.10;99.90;;;;;;4800622;29;20042;-80
2021/12/02 08:27:25;;;;;;;5.90;0.97;;;3.20;99.90;;;;;;4781493;29;20055;-80
2021/12/02 08:29:52;;;;;;;1.48;0.60;;;3.30;99.90;;;;;;4797083;29;20046;-81
2021/12/02 08:32:18;;;;;;;3.47;0.70;;;3.30;99.90;;;;;;4787853;29;20055;-80
2021/12/02 08:34:44;;;;;;;4.23;0.97;;;3.40;99.90;;;;;;4781658;29;20058;-80
2021/12/02 08:37:12;;;;;;;4.30;0.70;;;3.50;99.90;;;;;;4809755;29;20046;-80
2021/12/02 08:39:40;;;;;;;4.00;0.90;;;3.60;99.90;;;;;;4816878;29;20042;-80
2021/12/02 08:42:09;;;;;;;8.97;1.13;;;3.60;99.90;;;;;;4788861;29;20115;-80
2021/12/02 08:44:39;;;;;;;5.05;0.88;;;3.60;99.90;;;;;;4759037;29;20516;-82
2021/12/02 08:47:08;;;;;;;4.17;0.97;;;3.70;99.90;;;;;;4814144;29;20043;-80
2021/12/02 08:49:34;;;;;;;5.70;1.07;;;3.60;99.90;;;;;;4792663;29;20042;-80
2021/12/02 08:52:01;;;;;;;4.55;1.02;;;3.60;99.90;;;;;;4804237;29;20038;-80
2021/12/02 08:54:27;;;;;;;5.07;1.53;;;3.50;99.90;;;;;;4804350;29;20051;-81
2021/12/02 08:56:55;;;;;;;4.63;1.25;;;3.40;99.90;;;;;;4792192;29;20613;-81
2021/12/02 08:59:21;;;;;;;5.82;1.40;;;3.40;99.90;;;;;;4779609;29;20031;-81
2021/12/02 09:01:48;;;;;;;3.92;1.67;;;3.40;99.90;;;;;;4780443;29;20407;-80
2021/12/02 09:04:14;;;;;;;4.75;1.85;;;3.40;99.90;;;;;;4771854;29;20051;-76
2021/12/02 09:06:41;;;;;;;6.03;2.27;;;3.50;99.90;;;;;;4784980;29;20046;-84
2021/12/02 09:09:07;;;;;;;4.57;1.53;;;3.50;99.90;;;;;;4774099;29;20039;-76
2021/12/02 09:11:34;;;;;;;8.82;3.15;;;3.50;99.90;;;;;;4797820;29;20484;-76
2021/12/02 09:14:04;;;;;;;5.63;1.97;;;3.60;99.90;;;;;;4768719;29;20047;-76
2021/12/02 09:16:32;;;;;;;6.90;1.87;;;3.60;99.90;;;;;;4758998;29;20042;-76
2021/12/02 09:18:59;;;;;;;6.20;1.97;;;3.50;99.90;;;;;;4802661;29;20039;-77
2021/12/02 09:21:26;;;;;;;6.40;2.13;;;3.60;99.90;;;;;;4789673;29;20059;-76
2021/12/02 09:23:52;;;;;;;6.53;2.53;;;3.50;99.90;;;;;;4790074;29;20049;-76
2021/12/02 09:26:20;;;;;;;6.33;2.53;;;3.50;99.90;;;;;;4774806;29;20047;-76
2021/12/02 09:28:52;;;;;;;6.97;2.83;;;3.50;99.90;;;;;;4793304;29;20651;-76
2021/12/02 09:31:20;;;;;;;9.23;2.75;;;3.50;99.90;;;;;;4787122;29;20039;-76
2021/12/02 09:33:47;;;;;;;5.67;2.17;;;3.50;99.90;;;;;;4804247;29;20043;-76
2021/12/02 09:36:14;;;;;;;6.60;2.10;;;3.50;99.90;;;;;;4794330;29;20074;-76
2021/12/02 09:38:41;;;;;;;2.83;1.33;;;3.50;99.90;;;;;;4760584;29;20027;-76
2021/12/02 09:41:07;;;;;;;6.40;3.20;;;3.60;99.90;;;;;;4794566;29;20054;-75
2021/12/02 09:43:33;;;;;;;5.47;3.20;;;3.90;99.90;;;;;;4799661;29;20363;-76
2021/12/02 09:46:00;;;;;;;30.10;3.55;;;4.10;99.90;;;;;;4795558;29;20057;-77
2021/12/02 09:48:28;;;;;;;4.35;1.70;;;4.50;99.90;;;;;;4799719;29;20042;-76
2021/12/02 09:51:06;;;;;;;3.53;1.10;;;4.80;99.90;;;;;;4770308;29;20039;-80
2021/12/02 09:53:38;;;;;;;6.05;0.77;;;5.00;99.90;;;;;;4793562;29;20522;-80
2021/12/02 09:56:26;;;;;;;5.25;1.13;;;4.90;99.90;;;;;;4812665;29;20491;-80
2021/12/02 09:58:56;;;;;;;3.40;0.77;;;4.80;99.90;;;;;;4810631;29;20035;-80
2021/12/02 10:01:27;;;;;;;1.98;0.70;;;4.60;99.90;;;;;;4799805;29;20066;-80
2021/12/02 10:04:02;;;;;;;2.25;0.65;;;4.50;99.90;;;;;;4815116;29;20538;-80
2021/12/02 10:06:31;;;;;;;4.18;0.90;;;4.40;99.90;;;;;;4796222;29;20043;-80
2021/12/02 10:09:11;;;;;;;3.05;0.70;;;4.40;99.90;;;;;;4794668;29;20047;-80
2021/12/02 10:11:46;;;;;;;4.85;0.60;;;4.40;99.90;;;;;;4797298;29;20042;-80
2021/12/02 10:14:34;;;;;;;1.90;0.47;;;4.40;99.90;;;;;;4786117;29;20046;-81
2021/12/02 10:19:59;;;;;;;3.75;0.60;;;4.60;99.90;;;;;;4796994;29;20046;-80
2021/12/02 10:22:26;;;;;;;3.40;0.60;;;4.60;99.90;;;;;;4812266;29;20035;-80
2021/12/02 10:24:52;;;;;;;3.58;0.50;;;4.60;99.90;;;;;;4800135;29;20046;-80
2021/12/02 10:27:18;;;;;;;2.58;0.50;;;4.50;99.90;;;;;;4787544;29;20047;-80
2021/12/02 10:29:48;;;;;;;2.63;0.65;;;4.40;99.90;;;;;;4793989;29;20050;-81
2021/12/02 10:32:29;;;;;;;2.93;0.70;;;4.30;99.90;;;;;;4792852;29;20058;-80
2021/12/02 10:35:01;;;;;;;3.85;0.60;;;4.10;99.90;;;;;;4799307;29;20038;-80
2021/12/02 10:37:33;;;;;;;3.38;0.80;;;4.00;99.90;;;;;;4811426;29;20644;-81
2021/12/02 10:40:05;;;;;;;2.53;0.80;;;3.90;99.90;;;;;;4793417;29;20038;-80
2021/12/02 10:42:35;;;;;;;3.58;0.75;;;3.80;99.90;;;;;;4803303;29;20055;-80
2021/12/02 10:45:03;;;;;;;3.67;0.80;;;3.80;99.90;;;;;;4798531;29;20474;-77
2021/12/02 10:47:31;;;;;;;3.80;0.80;;;3.80;99.90;;;;;;4779788;29;20046;-77
2021/12/02 10:50:16;;;;;;;3.83;0.50;;;3.90;99.90;;;;;;4790386;29;20379;-80
2021/12/02 10:52:43;;;;;;;3.65;0.98;;;4.00;99.90;;;;;;4782493;29;20038;-80
2021/12/02 10:55:16;;;;;;;2.88;0.80;;;4.10;99.90;;;;;;4812301;29;20054;-79
2021/12/02 10:57:54;;;;;;;4.13;1.00;;;4.20;99.90;;;;;;4777897;29;20065;-80
2021/12/02 11:00:26;;;;;;;3.13;0.85;;;4.20;99.90;;;;;;4809238;29;20038;-79
2021/12/02 11:02:56;;;;;;;2.97;0.70;;;4.20;99.90;;;;;;4820464;29;20038;-80
2021/12/02 11:05:29;;;;;;;2.75;0.60;;;4.30;99.90;;;;;;4817874;29;20027;-80
2021/12/02 11:07:57;;;;;;;7.88;0.90;;;4.40;99.90;;;;;;4809343;29;20043;-77
2021/12/02 11:10:31;;;;;;;4.15;0.70;;;4.60;99.90;;;;;;4766267;29;20050;-75
2021/12/02 11:12:57;;;;;;;5.30;0.80;;;4.80;99.90;;;;;;4788701;29;20066;-77
2021/12/02 11:15:26;;;;;;;3.78;0.73;;;4.90;99.90;;;;;;4795737;29;20050;-79
2021/12/02 11:18:05;;;;;;;1.65;0.47;;;5.10;99.90;;;;;;4796754;29;20614;-81
2021/12/02 11:20:39;;;;;;;4.70;1.83;;;5.20;99.90;;;;;;4808965;29;20038;-80
2021/12/02 11:23:09;;;;;;;4.93;1.20;;;5.20;99.90;;;;;;4803914;29;20038;-79
2021/12/02 11:25:57;;;;;;;5.45;1.23;;;5.20;99.90;;;;;;4801219;29;20041;-82
2021/12/02 11:28:27;;;;;;;3.92;0.90;;;5.30;99.90;;;;;;4772019;29;20039;-77
2021/12/02 11:30:54;;;;;;;2.33;0.70;;;5.30;99.90;;;;;;4806223;29;20037;-79
2021/12/02 11:33:31;;;;;;;1.88;0.45;;;5.30;99.90;;;;;;4766972;29;20389;-77
2021/12/02 11:35:58;;;;;;;2.10;0.55;;;5.30;99.90;;;;;;4780520;29;20045;-77
2021/12/02 11:38:27;;;;;;;1.90;0.60;;;5.40;99.90;;;;;;4785215;29;20039;-80
2021/12/02 11:40:59;;;;;;;1.55;0.40;;;5.40;99.90;;;;;;4767785;29;20162;-78
2021/12/02 11:43:29;;;;;;;3.17;0.35;;;5.30;99.90;;;;;;4758900;29;20045;-82
2021/12/02 11:45:57;;;;;;;1.75;0.40;;;5.40;99.90;;;;;;4770852;29;20054;-81
2021/12/02 11:48:25;;;;;;;1.70;0.50;;;5.40;99.90;;;;;;4773081;29;20043;-80
2021/12/02 11:50:56;;;;;;;2.58;0.40;;;5.30;99.90;;;;;;4797512;29;20034;-85
2021/12/02 11:53:31;;;;;;;2.10;0.40;;;5.30;99.90;;;;;;4777851;29;20041;-86
2021/12/02 11:56:01;;;;;;;5.30;0.60;;;5.20;99.90;;;;;;4761623;29;20039;-83
2021/12/02 11:58:28;;;;;;;3.15;0.63;;;5.10;99.90;;;;;;4799263;29;20135;-78
2021/12/02 12:00:55;;;;;;;3.45;0.77;;;5.10;99.90;;;;;;4782871;29;20332;-79
2021/12/02 12:03:44;;;;;;;3.00;0.70;;;5.00;99.90;;;;;;4801541;29;20042;-79
2021/12/02 12:06:28;;;;;;;3.55;0.65;;;5.00;99.90;;;;;;4774159;29;20043;-82
2021/12/02 12:08:57;;;;;;;3.15;0.85;;;5.00;99.90;;;;;;4817901;29;20042;-82
2021/12/02 12:11:29;;;;;;;6.85;2.13;;;5.00;99.90;;;;;;4817319;29;20046;-82
2021/12/02 12:14:09;;;;;;;4.10;1.58;;;4.90;99.90;;;;;;4807532;29;20062;-78
2021/12/02 12:16:46;;;;;;;1.85;0.50;;;4.90;99.90;;;;;;4774275;29;20050;-79
2021/12/02 12:19:30;;;;;;;2.65;0.45;;;4.90;99.90;;;;;;4786830;29;20042;-80
2021/12/02 12:22:07;;;;;;;1.73;0.40;;;4.90;99.90;;;;;;4813360;29;20391;-79
2021/12/02 12:24:47;;;;;;;0.65;0.40;;;4.80;99.90;;;;;;4771069;29;20403;-79
2021/12/02 12:27:21;;;;;;;1.50;0.40;;;4.80;99.90;;;;;;4793485;29;20050;-79
2021/12/02 12:30:01;;;;;;;0.57;0.20;;;4.80;99.90;;;;;;4796937;29;20049;-79
2021/12/02 12:38:25;;;;;;;3.58;1.25;;;5.20;99.90;;;;;;4788093;29;20046;-79
2021/12/02 12:40:56;;;;;;;1.98;1.13;;;5.30;99.90;;;;;;4793005;29;20042;-80
2021/12/02 12:43:37;;;;;;;2.75;1.08;;;5.30;99.90;;;;;;4805690;29;20046;-78
2021/12/02 12:46:07;;;;;;;1.95;0.68;;;5.20;99.90;;;;;;4777526;29;20050;-79
2021/12/02 12:48:35;;;;;;;1.05;0.50;;;5.10;99.90;;;;;;4788967;29;20067;-79
2021/12/02 12:51:17;;;;;;;1.05;0.32;;;5.00;99.90;;;;;;4779845;29;20057;-79
2021/12/02 12:53:46;;;;;;;0.40;0.20;;;4.90;99.90;;;;;;4779391;29;20041;-79
2021/12/02 12:56:14;;;;;;;0.82;0.17;;;4.80;99.90;;;;;;4765657;29;20132;-78
2021/12/02 12:58:53;;;;;;;0.55;0.20;;;4.80;99.90;;;;;;4807981;29;20061;-78
2021/12/02 13:01:22;;;;;;;0.52;0.30;;;4.80;99.90;;;;;;4795232;29;20065;-79
2021/12/02 13:04:09;;;;;;;4.13;0.60;;;4.80;99.90;;;;;;4786302;29;20054;-79
2021/12/02 13:07:07;;;;;;;1.83;0.60;;;4.70;99.90;;;;;;4788450;29;20055;-79
2021/12/02 13:10:02;;;;;;;1.50;0.40;;;4.60;99.90;;;;;;4778008;29;20038;-79
2021/12/02 13:12:47;;;;;;;2.78;0.40;;;4.50;99.90;;;;;;4773334;29;20043;-79
2021/12/02 13:15:21;;;;;;;0.68;0.35;;;4.40;99.90;;;;;;4811475;29;20042;-80
2021/12/02 13:18:02;;;;;;;1.85;0.40;;;4.40;99.90;;;;;;4786892;29;20043;-80
2021/12/02 13:20:40;;;;;;;0.98;0.40;;;4.30;99.90;;;;;;4779911;29;20035;-80
2021/12/02 13:23:19;;;;;;;1.10;0.60;;;4.30;99.90;;;;;;4785504;29;20041;-80
2021/12/02 13:26:01;;;;;;;1.55;0.57;;;4.20;99.90;;;;;;4765514;29;20054;-80
2021/12/02 13:28:39;;;;;;;1.00;0.45;;;4.30;99.90;;;;;;4780986;29;20042;-79
2021/12/02 13:31:09;;;;;;;1.15;0.50;;;4.20;99.90;;;;;;4790919;29;20039;-77
2021/12/02 13:33:41;;;;;;;5.35;1.35;;;4.20;99.90;;;;;;4790295;29;20042;-79
2021/12/02 13:36:10;;;;;;;3.20;1.30;;;4.30;99.90;;;;;;4790745;29;20045;-79